This is the latest recevied weather packets stored in our database for station/object WC4PEM-10. If no packets are shown the sender has not sent any weather packets the latest 10 day(s).
| Time | Temp. | Humidity | Pressure | Rain* | Wind** | Luminosity | Snow |
|---|---|---|---|---|---|---|---|
| 1777568294 | 30.56° C | 58% | 1011.5 hPa | 0 mm | - | - | - |
| 1777568261 | 29.44° C | 61% | 1011.3 hPa | 0 mm | - | - | - |
| 1777568203 | 30.56° C | 58% | 1011.5 hPa | 0 mm | - | - | - |
| 1777567991 | 30° C | 59% | 1011.2 hPa | 0 mm | - | - | - |
| 1777567903 | 30° C | 59% | 1011.2 hPa | 0 mm | - | - | - |
| 1777567603 | 29.44° C | 61% | 1011.3 hPa | 0 mm | - | - | - |
| 1777567303 | 28.89° C | 61% | 1011.4 hPa | 0 mm | - | - | - |
| 1777567003 | 28.89° C | 61% | 1011.5 hPa | 0 mm | - | - | - |
| 1777566806 | 28.33° C | 62% | 1011.7 hPa | 0 mm | - | - | - |
| 1777566703 | 28.33° C | 62% | 1011.7 hPa | 0 mm | - | - | - |
| 1777566403 | 28.89° C | 61% | 1011.9 hPa | 0 mm | - | - | - |
| 1777566186 | 28.33° C | 63% | 1012 hPa | 0 mm | - | - | - |
| 1777566103 | 28.33° C | 63% | 1012 hPa | 0 mm | - | - | - |
| 1777565928 | 28.89° C | 64% | 1012 hPa | 0 mm | - | - | - |
| 1777565803 | 28.89° C | 64% | 1012 hPa | 0 mm | - | - | - |
| 1777565602 | 28.89° C | 62% | 1012.1 hPa | 0 mm | - | - | - |
| 1777565503 | 28.89° C | 62% | 1012.1 hPa | 0 mm | - | - | - |
| 1777565421 | 28.89° C | 62% | 1012.1 hPa | 0 mm | - | - | - |
| 1777565203 | 28.89° C | 62% | 1012.1 hPa | 0 mm | - | - | - |
| 1777564903 | 28.89° C | 61% | 1012.1 hPa | 0 mm | - | - | - |
| 1777564603 | 28.89° C | 63% | 1012.2 hPa | 0 mm | - | - | - |
| 1777564303 | 28.89° C | 62% | 1012.2 hPa | 0 mm | - | - | - |
| 1777564154 | 28.33° C | 64% | 1012.2 hPa | 0 mm | - | - | - |
| 1777564003 | 28.33° C | 64% | 1012.2 hPa | 0 mm | - | - | - |
| 1777563916 | 27.78° C | 66% | 1012.1 hPa | 0 mm | - | - | - |
* Rain latest hour (hover to see other rain measurements)
** Current wind speed in m/s (hover to see current wind gust speed)